sensor_id;sensor_type;location;lat;lon;timestamp;pressure;altitude;pressure_sealevel;temperature;humidity
10940;BME280;5522;42.696;23.494;2022-09-09T00:01:20;53789.47;;;-139.68;100.00
10940;BME280;5522;42.696;23.494;2022-09-09T00:03:55;53785.47;;;-139.68;100.00
10940;BME280;5522;42.696;23.494;2022-09-09T00:06:27;53767.38;;;-139.68;100.00
10940;BME280;5522;42.696;23.494;2022-09-09T00:09:01;53791.50;;;-139.68;100.00
10940;BME280;5522;42.696;23.494;2022-09-09T00:11:35;53779.44;;;-139.68;100.00
10940;BME280;5522;42.696;23.494;2022-09-09T00:14:15;53783.44;;;-139.68;100.00
10940;BME280;5522;42.696;23.494;2022-09-09T00:16:51;53787.47;;;-139.68;100.00
10940;BME280;5522;42.696;23.494;2022-09-09T00:19:25;53801.53;;;-139.68;100.00
10940;BME280;5522;42.696;23.494;2022-09-09T00:22:04;53791.50;;;-139.68;100.00
10940;BME280;5522;42.696;23.494;2022-09-09T00:24:39;53759.31;;;-139.68;100.00
10940;BME280;5522;42.696;23.494;2022-09-09T00:27:14;53799.53;;;-139.68;100.00
10940;BME280;5522;42.696;23.494;2022-09-09T00:29:45;53755.31;;;-139.68;100.00
10940;BME280;5522;42.696;23.494;2022-09-09T00:32:16;53755.31;;;-139.68;100.00
10940;BME280;5522;42.696;23.494;2022-09-09T00:34:49;53803.56;;;-139.68;100.00
10940;BME280;5522;42.696;23.494;2022-09-09T00:37:19;53775.41;;;-139.68;100.00
10940;BME280;5522;42.696;23.494;2022-09-09T00:39:48;53811.59;;;-139.68;100.00
10940;BME280;5522;42.696;23.494;2022-09-09T00:42:20;53787.47;;;-139.68;100.00
10940;BME280;5522;42.696;23.494;2022-09-09T00:44:53;53783.44;;;-139.68;100.00
10940;BME280;5522;42.696;23.494;2022-09-09T00:47:41;53783.44;;;-139.68;100.00
10940;BME280;5522;42.696;23.494;2022-09-09T00:50:35;53775.41;;;-139.68;100.00
10940;BME280;5522;42.696;23.494;2022-09-09T00:53:22;53779.44;;;-139.68;100.00
10940;BME280;5522;42.696;23.494;2022-09-09T00:55:59;53797.53;;;-139.68;100.00
10940;BME280;5522;42.696;23.494;2022-09-09T00:58:27;53811.59;;;-139.68;100.00
10940;BME280;5522;42.696;23.494;2022-09-09T01:06:34;53787.47;;;-139.68;100.00
10940;BME280;5522;42.696;23.494;2022-09-09T01:09:21;53749.28;;;-139.68;100.00
10940;BME280;5522;42.696;23.494;2022-09-09T01:11:57;53799.53;;;-139.68;100.00
10940;BME280;5522;42.696;23.494;2022-09-09T01:14:37;53797.53;;;-139.68;100.00
10940;BME280;5522;42.696;23.494;2022-09-09T01:17:10;53793.50;;;-139.68;100.00
10940;BME280;5522;42.696;23.494;2022-09-09T01:19:47;53779.44;;;-139.68;100.00
10940;BME280;5522;42.696;23.494;2022-09-09T01:22:28;53771.38;;;-139.68;100.00
10940;BME280;5522;42.696;23.494;2022-09-09T01:25:15;53787.47;;;-139.68;100.00
10940;BME280;5522;42.696;23.494;2022-09-09T01:27:48;53831.69;;;-139.68;100.00
10940;BME280;5522;42.696;23.494;2022-09-09T01:30:17;53795.50;;;-139.68;100.00
10940;BME280;5522;42.696;23.494;2022-09-09T01:32:46;53781.44;;;-139.68;100.00
10940;BME280;5522;42.696;23.494;2022-09-09T01:35:22;53775.41;;;-139.68;100.00
10940;BME280;5522;42.696;23.494;2022-09-09T01:37:55;53779.44;;;-139.68;100.00
10940;BME280;5522;42.696;23.494;2022-09-09T01:40:23;53799.53;;;-139.68;100.00
10940;BME280;5522;42.696;23.494;2022-09-09T01:42:52;53761.34;;;-139.68;100.00
10940;BME280;5522;42.696;23.494;2022-09-09T01:45:19;53767.38;;;-139.68;100.00
10940;BME280;5522;42.696;23.494;2022-09-09T01:47:46;53753.28;;;-139.68;100.00
10940;BME280;5522;42.696;23.494;2022-09-09T01:50:16;53801.53;;;-139.68;100.00
10940;BME280;5522;42.696;23.494;2022-09-09T01:52:44;53759.31;;;-139.68;100.00
10940;BME280;5522;42.696;23.494;2022-09-09T01:55:12;53773.41;;;-139.68;100.00
10940;BME280;5522;42.696;23.494;2022-09-09T01:57:44;53791.50;;;-139.68;100.00
10940;BME280;5522;42.696;23.494;2022-09-09T02:00:17;53739.22;;;-139.68;100.00
10940;BME280;5522;42.696;23.494;2022-09-09T02:02:48;53781.44;;;-139.68;100.00
10940;BME280;5522;42.696;23.494;2022-09-09T02:05:30;53779.44;;;-139.68;100.00
10940;BME280;5522;42.696;23.494;2022-09-09T02:08:06;53795.50;;;-139.68;100.00
10940;BME280;5522;42.696;23.494;2022-09-09T02:10:39;53783.44;;;-139.68;100.00
10940;BME280;5522;42.696;23.494;2022-09-09T02:13:10;53783.44;;;-139.68;100.00
10940;BME280;5522;42.696;23.494;2022-09-09T02:15:43;53781.44;;;-139.68;100.00
10940;BME280;5522;42.696;23.494;2022-09-09T02:18:13;53777.41;;;-139.68;100.00
10940;BME280;5522;42.696;23.494;2022-09-09T02:20:43;53797.53;;;-139.68;100.00
10940;BME280;5522;42.696;23.494;2022-09-09T02:23:12;53791.50;;;-139.68;100.00
10940;BME280;5522;42.696;23.494;2022-09-09T02:25:41;53779.44;;;-139.68;100.00
10940;BME280;5522;42.696;23.494;2022-09-09T02:28:10;53759.31;;;-139.68;100.00
10940;BME280;5522;42.696;23.494;2022-09-09T02:30:41;53727.16;;;-139.68;100.00
10940;BME280;5522;42.696;23.494;2022-09-09T02:33:14;53777.41;;;-139.68;100.00
10940;BME280;5522;42.696;23.494;2022-09-09T02:35:42;53767.38;;;-139.68;100.00
10940;BME280;5522;42.696;23.494;2022-09-09T02:38:13;53803.56;;;-139.68;100.00
10940;BME280;5522;42.696;23.494;2022-09-09T02:40:41;53791.50;;;-139.68;100.00
10940;BME280;5522;42.696;23.494;2022-09-09T02:43:08;53763.34;;;-139.68;100.00
10940;BME280;5522;42.696;23.494;2022-09-09T02:45:41;53831.69;;;-139.68;100.00
10940;BME280;5522;42.696;23.494;2022-09-09T02:48:14;53775.41;;;-139.68;100.00
10940;BME280;5522;42.696;23.494;2022-09-09T02:50:52;53751.28;;;-139.68;100.00
10940;BME280;5522;42.696;23.494;2022-09-09T02:53:26;53755.31;;;-139.68;100.00
10940;BME280;5522;42.696;23.494;2022-09-09T02:56:01;53791.50;;;-139.68;100.00
10940;BME280;5522;42.696;23.494;2022-09-09T02:58:30;53787.47;;;-139.68;100.00
10940;BME280;5522;42.696;23.494;2022-09-09T03:00:58;53761.34;;;-139.68;100.00
10940;BME280;5522;42.696;23.494;2022-09-09T03:03:26;53779.44;;;-139.68;100.00
10940;BME280;5522;42.696;23.494;2022-09-09T03:05:53;53793.50;;;-139.68;100.00
10940;BME280;5522;42.696;23.494;2022-09-09T03:08:20;53821.66;;;-139.68;100.00
10940;BME280;5522;42.696;23.494;2022-09-09T03:10:47;53759.31;;;-139.68;100.00
10940;BME280;5522;42.696;23.494;2022-09-09T03:13:14;53785.47;;;-139.68;100.00
10940;BME280;5522;42.696;23.494;2022-09-09T03:15:41;53751.28;;;-139.68;100.00
10940;BME280;5522;42.696;23.494;2022-09-09T03:18:09;53747.25;;;-139.68;100.00
10940;BME280;5522;42.696;23.494;2022-09-09T03:20:36;53797.53;;;-139.68;100.00
10940;BME280;5522;42.696;23.494;2022-09-09T03:23:03;53775.41;;;-139.68;100.00
10940;BME280;5522;42.696;23.494;2022-09-09T03:25:30;53761.34;;;-139.68;100.00
10940;BME280;5522;42.696;23.494;2022-09-09T03:27:57;53771.38;;;-139.68;100.00
10940;BME280;5522;42.696;23.494;2022-09-09T03:30:25;53793.50;;;-139.68;100.00
10940;BME280;5522;42.696;23.494;2022-09-09T03:32:52;53767.38;;;-139.68;100.00
10940;BME280;5522;42.696;23.494;2022-09-09T03:35:21;53789.47;;;-139.68;100.00
10940;BME280;5522;42.696;23.494;2022-09-09T03:37:49;53745.25;;;-139.68;100.00
10940;BME280;5522;42.696;23.494;2022-09-09T03:40:15;53773.41;;;-139.68;100.00
10940;BME280;5522;42.696;23.494;2022-09-09T03:42:43;53759.31;;;-139.68;100.00
10940;BME280;5522;42.696;23.494;2022-09-09T03:45:10;53765.34;;;-139.68;100.00
10940;BME280;5522;42.696;23.494;2022-09-09T03:47:37;53787.47;;;-139.68;100.00
10940;BME280;5522;42.696;23.494;2022-09-09T03:50:04;53799.53;;;-139.68;100.00
10940;BME280;5522;42.696;23.494;2022-09-09T03:52:36;53801.53;;;-139.68;100.00
10940;BME280;5522;42.696;23.494;2022-09-09T03:55:03;53767.38;;;-139.68;100.00
10940;BME280;5522;42.696;23.494;2022-09-09T03:57:30;53791.50;;;-139.68;100.00
10940;BME280;5522;42.696;23.494;2022-09-09T04:00:00;53779.44;;;-139.68;100.00
10940;BME280;5522;42.696;23.494;2022-09-09T04:02:27;53787.47;;;-139.68;100.00
10940;BME280;5522;42.696;23.494;2022-09-09T04:04:54;53819.63;;;-139.68;100.00
10940;BME280;5522;42.696;23.494;2022-09-09T04:07:21;53799.53;;;-139.68;100.00
10940;BME280;5522;42.696;23.494;2022-09-09T04:09:49;53799.53;;;-139.68;100.00
10940;BME280;5522;42.696;23.494;2022-09-09T04:12:16;53795.50;;;-139.68;100.00
10940;BME280;5522;42.696;23.494;2022-09-09T04:14:43;53785.47;;;-139.68;100.00
10940;BME280;5522;42.696;23.494;2022-09-09T04:17:10;53803.56;;;-139.68;100.00
10940;BME280;5522;42.696;23.494;2022-09-09T04:19:37;53795.50;;;-139.68;100.00
10940;BME280;5522;42.696;23.494;2022-09-09T04:22:03;53809.59;;;-139.68;100.00
10940;BME280;5522;42.696;23.494;2022-09-09T04:24:30;53771.38;;;-139.68;100.00
10940;BME280;5522;42.696;23.494;2022-09-09T04:26:58;53775.41;;;-139.68;100.00
10940;BME280;5522;42.696;23.494;2022-09-09T04:29:25;53811.59;;;-139.68;100.00
10940;BME280;5522;42.696;23.494;2022-09-09T04:31:52;53817.63;;;-139.68;100.00
10940;BME280;5522;42.696;23.494;2022-09-09T04:34:19;53781.44;;;-139.68;100.00
10940;BME280;5522;42.696;23.494;2022-09-09T04:36:46;53783.44;;;-139.68;100.00
10940;BME280;5522;42.696;23.494;2022-09-09T04:39:13;53773.41;;;-139.68;100.00
10940;BME280;5522;42.696;23.494;2022-09-09T04:41:40;53791.50;;;-139.68;100.00
10940;BME280;5522;42.696;23.494;2022-09-09T04:44:08;53791.50;;;-139.68;97.20
10940;BME280;5522;42.696;23.494;2022-09-09T04:46:35;53807.56;;;-139.68;92.63
10940;BME280;5522;42.696;23.494;2022-09-09T04:49:02;53797.53;;;-139.68;90.35
10940;BME280;5522;42.696;23.494;2022-09-09T04:51:29;53751.28;;;-139.68;88.55
10940;BME280;5522;42.696;23.494;2022-09-09T04:53:56;53805.56;;;-139.68;85.43
10940;BME280;5522;42.696;23.494;2022-09-09T04:56:23;53797.53;;;-139.68;78.86
10940;BME280;5522;42.696;23.494;2022-09-09T04:58:52;53827.69;;;-139.68;75.09
10940;BME280;5522;42.696;23.494;2022-09-09T05:01:21;53809.59;;;-139.68;74.57
10940;BME280;5522;42.696;23.494;2022-09-09T05:03:50;53803.56;;;-139.68;75.85
10940;BME280;5522;42.696;23.494;2022-09-09T05:06:18;53795.50;;;-139.68;73.68
10940;BME280;5522;42.696;23.494;2022-09-09T05:08:46;53795.50;;;-139.68;71.63
10940;BME280;5522;42.696;23.494;2022-09-09T05:11:14;53815.63;;;-139.68;63.83
10940;BME280;5522;42.696;23.494;2022-09-09T05:13:42;53835.72;;;-139.68;62.61
10940;BME280;5522;42.696;23.494;2022-09-09T05:16:09;53815.63;;;-139.68;65.26
10940;BME280;5522;42.696;23.494;2022-09-09T05:18:38;53783.44;;;-139.68;63.64
10940;BME280;5522;42.696;23.494;2022-09-09T05:21:05;53805.56;;;-139.68;61.44
10940;BME280;5522;42.696;23.494;2022-09-09T05:23:32;53779.44;;;-139.68;58.20
10940;BME280;5522;42.696;23.494;2022-09-09T05:26:04;53817.63;;;-139.68;53.35
10940;BME280;5522;42.696;23.494;2022-09-09T05:28:35;53823.66;;;-139.68;51.59
10940;BME280;5522;42.696;23.494;2022-09-09T05:31:06;53819.63;;;-139.68;49.11
10940;BME280;5522;42.696;23.494;2022-09-09T05:36:48;53817.63;;;-139.68;51.00
10940;BME280;5522;42.696;23.494;2022-09-09T05:39:35;53831.69;;;-139.68;45.97
10940;BME280;5522;42.696;23.494;2022-09-09T05:42:03;53843.75;;;-139.68;44.90
10940;BME280;5522;42.696;23.494;2022-09-09T05:44:30;53793.50;;;-139.68;43.36
10940;BME280;5522;42.696;23.494;2022-09-09T05:46:57;53823.66;;;-139.68;42.21
10940;BME280;5522;42.696;23.494;2022-09-09T05:49:24;53813.59;;;-139.68;41.07
10940;BME280;5522;42.696;23.494;2022-09-09T05:51:52;53837.72;;;-139.68;40.53
10940;BME280;5522;42.696;23.494;2022-09-09T05:54:19;53859.84;;;-139.68;39.48
10940;BME280;5522;42.696;23.494;2022-09-09T05:56:46;53797.53;;;-139.68;39.09
10940;BME280;5522;42.696;23.494;2022-09-09T05:59:15;53811.59;;;-139.68;38.62
10940;BME280;5522;42.696;23.494;2022-09-09T06:01:42;53815.63;;;-139.68;38.71
10940;BME280;5522;42.696;23.494;2022-09-09T06:04:09;53827.69;;;-139.68;37.78
10940;BME280;5522;42.696;23.494;2022-09-09T06:06:37;53787.47;;;-139.68;35.61
10940;BME280;5522;42.696;23.494;2022-09-09T06:09:08;53827.69;;;-139.68;32.97
10940;BME280;5522;42.696;23.494;2022-09-09T06:11:37;53859.84;;;-139.68;34.54
10940;BME280;5522;42.696;23.494;2022-09-09T06:14:05;53867.88;;;-139.68;33.92
10940;BME280;5522;42.696;23.494;2022-09-09T06:16:32;53851.81;;;-139.68;34.46
10940;BME280;5522;42.696;23.494;2022-09-09T06:19:00;53815.63;;;-139.68;34.10
10940;BME280;5522;42.696;23.494;2022-09-09T06:21:29;53813.59;;;-139.68;33.55
10940;BME280;5522;42.696;23.494;2022-09-09T06:23:56;53823.66;;;-139.68;35.76
10940;BME280;5522;42.696;23.494;2022-09-09T06:26:26;53827.69;;;-139.68;34.89
10940;BME280;5522;42.696;23.494;2022-09-09T06:28:54;53841.75;;;-139.68;36.15
10940;BME280;5522;42.696;23.494;2022-09-09T06:31:25;53879.94;;;-139.68;35.56
10940;BME280;5522;42.696;23.494;2022-09-09T06:33:56;53815.63;;;-139.68;35.73
10940;BME280;5522;42.696;23.494;2022-09-09T06:36:25;53831.69;;;-139.68;33.37
10940;BME280;5522;42.696;23.494;2022-09-09T06:38:52;53805.56;;;-139.68;33.68
10940;BME280;5522;42.696;23.494;2022-09-09T06:41:20;53867.88;;;-139.68;32.86
10940;BME280;5522;42.696;23.494;2022-09-09T06:43:49;53831.69;;;-139.68;33.33
10940;BME280;5522;42.696;23.494;2022-09-09T06:46:17;53851.81;;;-139.68;33.63
10940;BME280;5522;42.696;23.494;2022-09-09T06:48:45;53807.56;;;-139.68;32.46
10940;BME280;5522;42.696;23.494;2022-09-09T06:51:13;53827.69;;;-139.68;33.58
10940;BME280;5522;42.696;23.494;2022-09-09T06:53:42;53855.81;;;-139.68;33.43
10940;BME280;5522;42.696;23.494;2022-09-09T06:56:20;53843.75;;;-139.68;31.58
10940;BME280;5522;42.696;23.494;2022-09-09T06:58:51;53859.84;;;-139.68;33.39
10940;BME280;5522;42.696;23.494;2022-09-09T07:01:19;53825.66;;;-139.68;32.02
10940;BME280;5522;42.696;23.494;2022-09-09T07:03:48;53811.59;;;-139.68;30.63
10940;BME280;5522;42.696;23.494;2022-09-09T07:06:18;53839.75;;;-139.68;32.19
10940;BME280;5522;42.696;23.494;2022-09-09T07:08:49;53839.75;;;-139.68;31.82
10940;BME280;5522;42.696;23.494;2022-09-09T07:11:17;53795.50;;;-139.68;30.48
10940;BME280;5522;42.696;23.494;2022-09-09T07:13:44;53839.75;;;-139.68;30.24
10940;BME280;5522;42.696;23.494;2022-09-09T07:16:15;53849.78;;;-139.68;32.18
10940;BME280;5522;42.696;23.494;2022-09-09T07:18:43;53835.72;;;-139.68;33.10
10940;BME280;5522;42.696;23.494;2022-09-09T07:21:10;53823.66;;;-139.68;32.88
10940;BME280;5522;42.696;23.494;2022-09-09T07:23:39;53839.75;;;-139.68;31.28
10940;BME280;5522;42.696;23.494;2022-09-09T07:26:08;53807.56;;;-139.68;32.46
10940;BME280;5522;42.696;23.494;2022-09-09T07:28:36;53859.84;;;-139.68;31.98
10940;BME280;5522;42.696;23.494;2022-09-09T07:31:03;53835.72;;;-139.68;30.32
10940;BME280;5522;42.696;23.494;2022-09-09T07:33:33;53829.69;;;-139.68;31.26
10940;BME280;5522;42.696;23.494;2022-09-09T07:36:06;53833.72;;;-139.68;30.05
10940;BME280;5522;42.696;23.494;2022-09-09T07:38:37;53817.63;;;-139.68;29.72
10940;BME280;5522;42.696;23.494;2022-09-09T07:41:06;53825.66;;;-139.68;30.66
10940;BME280;5522;42.696;23.494;2022-09-09T07:43:37;53851.81;;;-139.68;31.16
10940;BME280;5522;42.696;23.494;2022-09-09T07:46:04;53851.81;;;-139.68;31.27
10940;BME280;5522;42.696;23.494;2022-09-09T07:48:33;53843.75;;;-139.68;31.21
10940;BME280;5522;42.696;23.494;2022-09-09T07:51:08;53829.69;;;-139.68;31.85
10940;BME280;5522;42.696;23.494;2022-09-09T07:53:36;53867.88;;;-139.68;31.71
10940;BME280;5522;42.696;23.494;2022-09-09T07:56:05;53833.72;;;-139.68;32.40
10940;BME280;5522;42.696;23.494;2022-09-09T07:58:32;53843.75;;;-139.68;31.29
10940;BME280;5522;42.696;23.494;2022-09-09T08:00:59;53831.69;;;-139.68;30.10
10940;BME280;5522;42.696;23.494;2022-09-09T08:03:26;53775.41;;;-139.68;30.35
10940;BME280;5522;42.696;23.494;2022-09-09T08:06:00;53839.75;;;-139.68;28.40
10940;BME280;5522;42.696;23.494;2022-09-09T08:08:28;53819.63;;;-139.68;29.49
10940;BME280;5522;42.696;23.494;2022-09-09T08:11:02;53791.50;;;-139.68;29.91
10940;BME280;5522;42.696;23.494;2022-09-09T08:13:29;53787.47;;;-139.68;29.65
10940;BME280;5522;42.696;23.494;2022-09-09T08:16:04;53807.56;;;-139.68;28.88
10940;BME280;5522;42.696;23.494;2022-09-09T08:18:31;53823.66;;;-139.68;28.94
10940;BME280;5522;42.696;23.494;2022-09-09T08:21:04;53807.56;;;-139.68;29.70
10940;BME280;5522;42.696;23.494;2022-09-09T08:23:32;53811.59;;;-139.68;28.82
10940;BME280;5522;42.696;23.494;2022-09-09T08:26:03;53795.50;;;-139.68;27.13
10940;BME280;5522;42.696;23.494;2022-09-09T08:28:31;53807.56;;;-139.68;27.36
10940;BME280;5522;42.696;23.494;2022-09-09T08:31:05;53811.59;;;-139.68;27.52
10940;BME280;5522;42.696;23.494;2022-09-09T08:33:32;53803.56;;;-139.68;28.75
10940;BME280;5522;42.696;23.494;2022-09-09T08:36:01;53847.78;;;-139.68;27.02
10940;BME280;5522;42.696;23.494;2022-09-09T08:38:28;53823.66;;;-139.68;28.56
10940;BME280;5522;42.696;23.494;2022-09-09T08:40:59;53829.69;;;-139.68;27.95
10940;BME280;5522;42.696;23.494;2022-09-09T08:43:29;53823.66;;;-139.68;28.11
10940;BME280;5522;42.696;23.494;2022-09-09T08:46:02;53831.69;;;-139.68;28.64
10940;BME280;5522;42.696;23.494;2022-09-09T08:48:43;53851.81;;;-139.68;30.14
10940;BME280;5522;42.696;23.494;2022-09-09T08:51:13;53879.94;;;-139.68;31.69
10940;BME280;5522;42.696;23.494;2022-09-09T08:53:42;53843.75;;;-139.68;31.48
10940;BME280;5522;42.696;23.494;2022-09-09T08:56:13;53805.56;;;-139.68;33.94
10940;BME280;5522;42.696;23.494;2022-09-09T08:58:45;53843.75;;;-139.68;31.02
10940;BME280;5522;42.696;23.494;2022-09-09T09:04:03;53859.84;;;-139.68;33.99
10940;BME280;5522;42.696;23.494;2022-09-09T09:06:46;53841.75;;;-139.68;33.25
10940;BME280;5522;42.696;23.494;2022-09-09T09:09:21;53825.66;;;-139.68;33.67
10940;BME280;5522;42.696;23.494;2022-09-09T09:11:53;53859.84;;;-139.68;32.04
10940;BME280;5522;42.696;23.494;2022-09-09T09:14:23;53829.69;;;-139.68;32.31
10940;BME280;5522;42.696;23.494;2022-09-09T09:16:53;53811.59;;;-139.68;33.06
10940;BME280;5522;42.696;23.494;2022-09-09T09:19:21;53847.78;;;-139.68;33.62
10940;BME280;5522;42.696;23.494;2022-09-09T09:21:55;53855.81;;;-139.68;35.03
10940;BME280;5522;42.696;23.494;2022-09-09T09:24:28;53837.72;;;-139.68;34.94
10940;BME280;5522;42.696;23.494;2022-09-09T09:27:00;53859.84;;;-139.68;33.85
10940;BME280;5522;42.696;23.494;2022-09-09T09:29:34;53831.69;;;-139.68;32.76
10940;BME280;5522;42.696;23.494;2022-09-09T09:32:03;53841.75;;;-139.68;32.80
10940;BME280;5522;42.696;23.494;2022-09-09T09:34:30;53871.91;;;-139.68;32.33
10940;BME280;5522;42.696;23.494;2022-09-09T09:36:59;53817.63;;;-139.68;32.76
10940;BME280;5522;42.696;23.494;2022-09-09T09:39:29;53815.63;;;-139.68;32.69
10940;BME280;5522;42.696;23.494;2022-09-09T09:42:09;53865.88;;;-139.68;33.73
10940;BME280;5522;42.696;23.494;2022-09-09T09:44:39;53811.59;;;-139.68;35.66
10940;BME280;5522;42.696;23.494;2022-09-09T09:47:08;53877.94;;;-139.68;35.75
10940;BME280;5522;42.696;23.494;2022-09-09T09:49:38;53898.03;;;-139.68;36.68
10940;BME280;5522;42.696;23.494;2022-09-09T09:52:16;53857.84;;;-139.68;35.27
10940;BME280;5522;42.696;23.494;2022-09-09T09:54:46;53877.94;;;-139.68;35.60
10940;BME280;5522;42.696;23.494;2022-09-09T09:57:15;53831.69;;;-139.68;34.04
10940;BME280;5522;42.696;23.494;2022-09-09T09:59:43;53803.56;;;-139.68;33.92
10940;BME280;5522;42.696;23.494;2022-09-09T10:02:19;53855.81;;;-139.68;34.13
10940;BME280;5522;42.696;23.494;2022-09-09T10:04:46;53835.72;;;-139.68;33.68
10940;BME280;5522;42.696;23.494;2022-09-09T10:07:19;53855.81;;;-139.68;33.57
10940;BME280;5522;42.696;23.494;2022-09-09T10:09:48;53859.84;;;-139.68;33.80
10940;BME280;5522;42.696;23.494;2022-09-09T10:12:24;53831.69;;;-139.68;36.26
10940;BME280;5522;42.696;23.494;2022-09-09T10:15:00;53855.81;;;-139.68;38.33
10940;BME280;5522;42.696;23.494;2022-09-09T10:17:36;53861.84;;;-139.68;38.18
10940;BME280;5522;42.696;23.494;2022-09-09T10:20:24;53863.88;;;-139.68;35.98
10940;BME280;5522;42.696;23.494;2022-09-09T10:23:06;53855.81;;;-139.68;34.10
10940;BME280;5522;42.696;23.494;2022-09-09T10:25:49;53871.91;;;-139.68;35.89
10940;BME280;5522;42.696;23.494;2022-09-09T10:28:30;53861.84;;;-139.68;35.80
10940;BME280;5522;42.696;23.494;2022-09-09T10:31:10;53871.91;;;-139.68;39.21
10940;BME280;5522;42.696;23.494;2022-09-09T10:33:44;53875.94;;;-139.68;42.10
10940;BME280;5522;42.696;23.494;2022-09-09T10:36:18;53869.91;;;-139.68;45.83
10940;BME280;5522;42.696;23.494;2022-09-09T10:38:52;53900.06;;;-139.68;48.18
10940;BME280;5522;42.696;23.494;2022-09-09T10:41:37;53883.97;;;-139.68;49.30
10940;BME280;5522;42.696;23.494;2022-09-09T10:44:26;53841.75;;;-139.68;47.04
10940;BME280;5522;42.696;23.494;2022-09-09T10:47:10;53863.88;;;-139.68;44.11
10940;BME280;5522;42.696;23.494;2022-09-09T10:49:57;53906.06;;;-139.68;45.96
10940;BME280;5522;42.696;23.494;2022-09-09T10:52:34;53849.78;;;-139.68;47.31
10940;BME280;5522;42.696;23.494;2022-09-09T10:55:12;53865.88;;;-139.68;47.06
10940;BME280;5522;42.696;23.494;2022-09-09T10:57:42;53847.78;;;-139.68;45.78
10940;BME280;5522;42.696;23.494;2022-09-09T11:00:16;53879.94;;;-139.68;47.09
10940;BME280;5522;42.696;23.494;2022-09-09T11:02:45;53875.94;;;-139.68;48.34
10940;BME280;5522;42.696;23.494;2022-09-09T11:05:17;53867.88;;;-139.68;46.71
10940;BME280;5522;42.696;23.494;2022-09-09T11:07:48;53885.97;;;-139.68;47.84
10940;BME280;5522;42.696;23.494;2022-09-09T11:10:24;53892.00;;;-139.68;47.54
10940;BME280;5522;42.696;23.494;2022-09-09T11:13:00;53843.75;;;-139.68;46.64
10940;BME280;5522;42.696;23.494;2022-09-09T11:15:31;53888.00;;;-139.68;49.71
10940;BME280;5522;42.696;23.494;2022-09-09T11:18:04;53875.94;;;-139.68;48.47
10940;BME280;5522;42.696;23.494;2022-09-09T11:20:33;53896.03;;;-139.68;50.32
10940;BME280;5522;42.696;23.494;2022-09-09T11:23:03;53861.84;;;-139.68;50.74
10940;BME280;5522;42.696;23.494;2022-09-09T11:25:38;53877.94;;;-139.68;50.38
10940;BME280;5522;42.696;23.494;2022-09-09T11:28:25;53851.81;;;-139.68;53.80
10940;BME280;5522;42.696;23.494;2022-09-09T11:31:08;53859.84;;;-139.68;54.99
10940;BME280;5522;42.696;23.494;2022-09-09T11:34:02;53831.69;;;-139.68;53.92
10940;BME280;5522;42.696;23.494;2022-09-09T11:36:47;53863.88;;;-139.68;53.21
10940;BME280;5522;42.696;23.494;2022-09-09T11:39:36;53861.84;;;-139.68;52.10
10940;BME280;5522;42.696;23.494;2022-09-09T11:42:23;53843.75;;;-139.68;51.85
10940;BME280;5522;42.696;23.494;2022-09-09T11:44:50;53839.75;;;-139.68;50.88
10940;BME280;5522;42.696;23.494;2022-09-09T11:47:21;53881.97;;;-139.68;51.04
10940;BME280;5522;42.696;23.494;2022-09-09T11:49:52;53869.91;;;-139.68;51.05
10940;BME280;5522;42.696;23.494;2022-09-09T11:52:24;53843.75;;;-139.68;49.69
10940;BME280;5522;42.696;23.494;2022-09-09T11:54:54;53859.84;;;-139.68;51.58
10940;BME280;5522;42.696;23.494;2022-09-09T11:57:31;53877.94;;;-139.68;52.16
10940;BME280;5522;42.696;23.494;2022-09-09T11:59:59;53916.13;;;-139.68;52.92
10940;BME280;5522;42.696;23.494;2022-09-09T12:02:27;53912.13;;;-139.68;52.71
10940;BME280;5522;42.696;23.494;2022-09-09T12:04:59;53867.88;;;-139.68;47.79
10940;BME280;5522;42.696;23.494;2022-09-09T12:07:33;53867.88;;;-139.68;45.81
10940;BME280;5522;42.696;23.494;2022-09-09T12:10:17;53892.00;;;-139.68;52.31
10940;BME280;5522;42.696;23.494;2022-09-09T12:12:47;53879.94;;;-139.68;57.31
10940;BME280;5522;42.696;23.494;2022-09-09T12:15:32;53892.00;;;-139.68;56.62
10940;BME280;5522;42.696;23.494;2022-09-09T12:17:59;53867.88;;;-139.68;55.67
10940;BME280;5522;42.696;23.494;2022-09-09T12:20:32;53859.84;;;-139.68;55.71
10940;BME280;5522;42.696;23.494;2022-09-09T12:23:15;53900.06;;;-139.68;50.19
10940;BME280;5522;42.696;23.494;2022-09-09T12:25:58;53853.81;;;-139.68;52.33
10940;BME280;5522;42.696;23.494;2022-09-09T12:28:51;53873.91;;;-139.68;50.89
10940;BME280;5522;42.696;23.494;2022-09-09T12:31:22;53859.84;;;-139.68;52.00
10940;BME280;5522;42.696;23.494;2022-09-09T12:33:52;53859.84;;;-139.68;55.50
10940;BME280;5522;42.696;23.494;2022-09-09T12:36:20;53861.84;;;-139.68;53.29
10940;BME280;5522;42.696;23.494;2022-09-09T12:38:48;53835.72;;;-139.68;52.79
10940;BME280;5522;42.696;23.494;2022-09-09T12:41:21;53871.91;;;-139.68;49.94
10940;BME280;5522;42.696;23.494;2022-09-09T12:43:49;53857.84;;;-139.68;46.99
10940;BME280;5522;42.696;23.494;2022-09-09T12:46:23;53871.91;;;-139.68;51.92
10940;BME280;5522;42.696;23.494;2022-09-09T12:48:53;53877.94;;;-139.68;53.20
10940;BME280;5522;42.696;23.494;2022-09-09T12:51:25;53879.94;;;-139.68;51.97
10940;BME280;5522;42.696;23.494;2022-09-09T12:53:53;53900.06;;;-139.68;56.08
10940;BME280;5522;42.696;23.494;2022-09-09T12:56:22;53839.75;;;-139.68;54.49
10940;BME280;5522;42.696;23.494;2022-09-09T12:58:55;53906.06;;;-139.68;52.27
10940;BME280;5522;42.696;23.494;2022-09-09T13:01:26;53851.81;;;-139.68;51.71
10940;BME280;5522;42.696;23.494;2022-09-09T13:03:54;53912.13;;;-139.68;49.81
10940;BME280;5522;42.696;23.494;2022-09-09T13:06:22;53861.84;;;-139.68;49.77
10940;BME280;5522;42.696;23.494;2022-09-09T13:08:50;53871.91;;;-139.68;52.50